Elias Tsakos — SVCL7 — position and weather

sailwx.info

Track history (hours):
 
Tides and Currents Weather Stations Pressure Air Temp Water Temp Dewpoint Dewpoint Depression Visibility Wind Speed Wind Dir Waves Ship Positions

Elias Tsakos

Last reported at 2018-Apr-30 19:02 UTC. Time now 2018-May-21 05:23 UTC.
Position N 36°34' E 013°25'.
Warning: this ship's position is 20 days out of date.

Length 250 m; draft 13.3 m.

Type: Tanker. MMSI: 241455000.

Date/timePositionNaut miles runAvg speedWind from/ knotsBaromVisibWave heightAir tempDewpointWater temp
2018-Apr-30 19:02N 36°34' E 013°25'112.7
2018-Apr-30 18:58N 36°34' E 013°25'612.7
2018-Apr-30 18:30N 36°36' E 013°18'712.5
2018-Apr-30 17:58N 36°39' E 013°10'612.4
2018-Apr-30 17:30N 36°41' E 013°03'1912.7
2018-Apr-30 16:01N 36°49' E 012°42'013.0
2018-Apr-30 16:00N 36°49' E 012°42'812.6
2018-Apr-30 15:24N 36°52' E 012°33'512.7
2018-Apr-30 15:00N 36°54' E 012°27'812.8
2018-Apr-30 14:21N 36°57' E 012°18'3413.0
2018-Apr-30 11:45N 37°10' E 011°39'313.4
2018-Apr-30 11:31N 37°12' E 011°35'713.3
2018-Apr-30 11:00N 37°14' E 011°27'613.1
2018-Apr-30 10:30N 37°17' E 011°20'39312.6
2018-Apr-29 03:13N 37°21' E 003°05'313.6
2018-Apr-29 03:00N 37°21' E 003°01'713.5
2018-Apr-29 02:30N 37°20' E 002°53'6513.3
2018-Apr-28 21:35N 37°09' E 001°32'113.7
2018-Apr-28 21:30N 37°09' E 001°31'713.4
2018-Apr-28 20:59N 37°07' E 001°22'613.2
2018-Apr-28 20:30N 37°05' E 001°15'613.0
2018-Apr-28 20:00N 37°03' E 001°07'712.9
2018-Apr-28 19:30N 37°01' E 000°59'612.1
2018-Apr-28 19:00N 36°60' E 000°52'5 8.9
2018-Apr-28 18:30N 36°59' E 000°46'612.5
2018-Apr-28 18:00N 36°58' E 000°39'612.2
2018-Apr-28 17:30N 36°57' E 000°31'612.4
2018-Apr-28 17:00N 36°55' E 000°24'612.6
2018-Apr-28 16:30N 36°53' E 000°16'612.8
2018-Apr-28 16:00N 36°51' E 000°09'712.9
2018-Apr-28 15:30N 36°50' E 000°01'1813.0
2018-Apr-28 14:06N 36°45' W 000°21'1113.1
2018-Apr-28 13:14N 36°42' W 000°35'313.3
2018-Apr-28 13:00N 36°41' W 000°39'713.4
2018-Apr-28 12:30N 36°40' W 000°47'1013.2
2018-Apr-28 11:44N 36°38' W 000°59'413.3
2018-Apr-28 11:26N 36°36' W 001°04'19213.1
2018-Apr-27 20:45N 36°06' W 004°59'414.4
2018-Apr-27 20:28N 36°05' W 005°05'612.3
2018-Apr-27 20:00N 36°04' W 005°11'612.4
2018-Apr-27 19:30N 36°04' W 005°19'4 7.9
2018-Apr-27 19:00N 36°07' W 005°22'1 1.1
2018-Apr-27 18:29N 36°07' W 005°22'0 0.4
2018-Apr-27 17:42N 36°07' W 005°22'0 0.1
2018-Apr-27 17:24N 36°07' W 005°22'0 0.0
2018-Apr-27 16:18N 36°07' W 005°22'0 0.0
2018-Apr-27 15:45N 36°07' W 005°22'0 0.0
2018-Apr-27 15:30N 36°07' W 005°22'0 0.1
2018-Apr-27 14:57N 36°07' W 005°22'0 0.1
2018-Apr-27 14:30N 36°07' W 005°22'0 0.1
2018-Apr-27 14:00N 36°07' W 005°22'0 0.1
2018-Apr-27 13:24N 36°08' W 005°22'0 0.0
2018-Apr-27 12:48N 36°08' W 005°22'0 0.2
2018-Apr-27 12:30N 36°08' W 005°22'0 0.1
2018-Apr-27 11:57N 36°08' W 005°22'0 0.1
2018-Apr-27 11:30N 36°08' W 005°22'0 0.0
2018-Apr-27 11:00N 36°08' W 005°22'0 0.3
2018-Apr-27 10:30N 36°08' W 005°23'0 0.3
2018-Apr-27 10:00N 36°08' W 005°23'0 0.2
2018-Apr-27 09:31N 36°07' W 005°23'2 3.4
2018-Apr-27 09:01N 36°06' W 005°22'0 0.9
2018-Apr-27 08:29N 36°05' W 005°22'3 6.0
2018-Apr-27 08:01N 36°03' W 005°21'4 7.1
2018-Apr-27 07:30N 35°59' W 005°22'611.6
2018-Apr-27 07:00N 35°57' W 005°28'21911.8
2018-Apr-26 12:27N 37°10' W 009°46'812.5
2018-Apr-26 11:50N 37°17' W 009°48'512.7
2018-Apr-26 11:25N 37°22' W 009°49'612.5
2018-Apr-26 10:56N 37°28' W 009°51'812.6
2018-Apr-26 10:16N 37°36' W 009°54'512.6
2018-Apr-26 09:54N 37°41' W 009°56'512.6
2018-Apr-26 09:30N 37°46' W 009°58'612.8
2018-Apr-26 09:00N 37°52' W 009°60'612.7
2018-Apr-26 08:30N 37°58' W 010°01'612.5
2018-Apr-26 08:00N 38°04' W 010°02'612.6
2018-Apr-26 07:30N 38°10' W 010°04'612.5
2018-Apr-26 07:00N 38°16' W 010°05'612.5
2018-Apr-26 06:30N 38°22' W 010°07'612.5
2018-Apr-26 06:00N 38°29' W 010°09'612.6
2018-Apr-26 05:30N 38°35' W 010°11'612.3
2018-Apr-26 04:59N 38°41' W 010°13'613.1
2018-Apr-26 04:30N 38°47' W 010°13'713.1
2018-Apr-26 04:00N 38°54' W 010°13'713.1
2018-Apr-26 03:30N 39°00' W 010°13'713.0
2018-Apr-26 02:59N 39°07' W 010°14'612.7
2018-Apr-26 02:28N 39°13' W 010°15'612.6
2018-Apr-26 02:00N 39°19' W 010°15'612.7
2018-Apr-26 01:29N 39°26' W 010°16'712.7
2018-Apr-26 00:58N 39°32' W 010°17'612.9
2018-Apr-26 00:31N 39°38' W 010°17'712.9
2018-Apr-26 00:00N 39°45' W 010°18'712.4
2018-Apr-25 23:28N 39°51' W 010°19'712.6
2018-Apr-25 22:55N 39°58' W 010°20'62313.0
2018-Apr-23 22:59N 50°19' W 011°37'1013.0
2018-Apr-23 22:12N 50°29' W 011°39'412.7
2018-Apr-23 21:53N 50°33' W 011°40'612.6
2018-Apr-23 21:27N 50°39' W 011°40'512.5
2018-Apr-23 21:00N 50°44' W 011°41'712.5
2018-Apr-23 20:28N 50°51' W 011°42'712.6
2018-Apr-23 19:54N 50°58' W 011°43'612.7
2018-Apr-23 19:27N 51°04' W 011°44'20812.5
2018-Apr-23 02:51N 54°31' W 011°39'  
Track history (hours):
 
Tides and Currents Weather Stations Pressure Air Temp Water Temp Dewpoint Dewpoint Depression Visibility Wind Speed Wind Dir Waves Ship Positions

Elias Tsakos

Last reported at 2018-Apr-30 19:02 UTC. Time now 2018-May-21 05:23 UTC.
Position N 36°34' E 013°25'.
Warning: this ship's position is 20 days out of date.

Length 250 m; draft 13.3 m.

Type: Tanker. MMSI: 241455000.

Date/timePositionNaut miles runAvg speedWind from/ knotsBaromVisibWave heightAir tempDewpointWater temp
2018-Apr-30 19:02N 36°34' E 013°25'112.7
2018-Apr-30 18:58N 36°34' E 013°25'612.7
2018-Apr-30 18:30N 36°36' E 013°18'712.5
2018-Apr-30 17:58N 36°39' E 013°10'612.4
2018-Apr-30 17:30N 36°41' E 013°03'1912.7
2018-Apr-30 16:01N 36°49' E 012°42'013.0
2018-Apr-30 16:00N 36°49' E 012°42'812.6
2018-Apr-30 15:24N 36°52' E 012°33'512.7
2018-Apr-30 15:00N 36°54' E 012°27'812.8
2018-Apr-30 14:21N 36°57' E 012°18'3413.0
2018-Apr-30 11:45N 37°10' E 011°39'313.4
2018-Apr-30 11:31N 37°12' E 011°35'713.3
2018-Apr-30 11:00N 37°14' E 011°27'613.1
2018-Apr-30 10:30N 37°17' E 011°20'39312.6
2018-Apr-29 03:13N 37°21' E 003°05'313.6
2018-Apr-29 03:00N 37°21' E 003°01'713.5
2018-Apr-29 02:30N 37°20' E 002°53'6513.3
2018-Apr-28 21:35N 37°09' E 001°32'113.7
2018-Apr-28 21:30N 37°09' E 001°31'713.4
2018-Apr-28 20:59N 37°07' E 001°22'613.2
2018-Apr-28 20:30N 37°05' E 001°15'613.0
2018-Apr-28 20:00N 37°03' E 001°07'712.9
2018-Apr-28 19:30N 37°01' E 000°59'612.1
2018-Apr-28 19:00N 36°60' E 000°52'5 8.9
2018-Apr-28 18:30N 36°59' E 000°46'612.5
2018-Apr-28 18:00N 36°58' E 000°39'612.2
2018-Apr-28 17:30N 36°57' E 000°31'612.4
2018-Apr-28 17:00N 36°55' E 000°24'612.6
2018-Apr-28 16:30N 36°53' E 000°16'612.8
2018-Apr-28 16:00N 36°51' E 000°09'712.9
2018-Apr-28 15:30N 36°50' E 000°01'1813.0
2018-Apr-28 14:06N 36°45' W 000°21'1113.1
2018-Apr-28 13:14N 36°42' W 000°35'313.3
2018-Apr-28 13:00N 36°41' W 000°39'713.4
2018-Apr-28 12:30N 36°40' W 000°47'1013.2
2018-Apr-28 11:44N 36°38' W 000°59'413.3
2018-Apr-28 11:26N 36°36' W 001°04'19213.1
2018-Apr-27 20:45N 36°06' W 004°59'414.4
2018-Apr-27 20:28N 36°05' W 005°05'612.3
2018-Apr-27 20:00N 36°04' W 005°11'612.4
2018-Apr-27 19:30N 36°04' W 005°19'4 7.9
2018-Apr-27 19:00N 36°07' W 005°22'1 1.1
2018-Apr-27 18:29N 36°07' W 005°22'0 0.4
2018-Apr-27 17:42N 36°07' W 005°22'0 0.1
2018-Apr-27 17:24N 36°07' W 005°22'0 0.0
2018-Apr-27 16:18N 36°07' W 005°22'0 0.0
2018-Apr-27 15:45N 36°07' W 005°22'0 0.0
2018-Apr-27 15:30N 36°07' W 005°22'0 0.1
2018-Apr-27 14:57N 36°07' W 005°22'0 0.1
2018-Apr-27 14:30N 36°07' W 005°22'0 0.1
2018-Apr-27 14:00N 36°07' W 005°22'0 0.1
2018-Apr-27 13:24N 36°08' W 005°22'0 0.0
2018-Apr-27 12:48N 36°08' W 005°22'0 0.2
2018-Apr-27 12:30N 36°08' W 005°22'0 0.1
2018-Apr-27 11:57N 36°08' W 005°22'0 0.1
2018-Apr-27 11:30N 36°08' W 005°22'0 0.0
2018-Apr-27 11:00N 36°08' W 005°22'0 0.3
2018-Apr-27 10:30N 36°08' W 005°23'0 0.3
2018-Apr-27 10:00N 36°08' W 005°23'0 0.2
2018-Apr-27 09:31N 36°07' W 005°23'2 3.4
2018-Apr-27 09:01N 36°06' W 005°22'0 0.9
2018-Apr-27 08:29N 36°05' W 005°22'3 6.0
2018-Apr-27 08:01N 36°03' W 005°21'4 7.1
2018-Apr-27 07:30N 35°59' W 005°22'611.6
2018-Apr-27 07:00N 35°57' W 005°28'21911.8
2018-Apr-26 12:27N 37°10' W 009°46'812.5
2018-Apr-26 11:50N 37°17' W 009°48'512.7
2018-Apr-26 11:25N 37°22' W 009°49'612.5
2018-Apr-26 10:56N 37°28' W 009°51'812.6
2018-Apr-26 10:16N 37°36' W 009°54'512.6
2018-Apr-26 09:54N 37°41' W 009°56'512.6
2018-Apr-26 09:30N 37°46' W 009°58'612.8
2018-Apr-26 09:00N 37°52' W 009°60'612.7
2018-Apr-26 08:30N 37°58' W 010°01'612.5
2018-Apr-26 08:00N 38°04' W 010°02'612.6
2018-Apr-26 07:30N 38°10' W 010°04'612.5
2018-Apr-26 07:00N 38°16' W 010°05'612.5
2018-Apr-26 06:30N 38°22' W 010°07'612.5
2018-Apr-26 06:00N 38°29' W 010°09'612.6
2018-Apr-26 05:30N 38°35' W 010°11'612.3
2018-Apr-26 04:59N 38°41' W 010°13'613.1
2018-Apr-26 04:30N 38°47' W 010°13'713.1
2018-Apr-26 04:00N 38°54' W 010°13'713.1
2018-Apr-26 03:30N 39°00' W 010°13'713.0
2018-Apr-26 02:59N 39°07' W 010°14'612.7
2018-Apr-26 02:28N 39°13' W 010°15'612.6
2018-Apr-26 02:00N 39°19' W 010°15'612.7
2018-Apr-26 01:29N 39°26' W 010°16'712.7
2018-Apr-26 00:58N 39°32' W 010°17'612.9
2018-Apr-26 00:31N 39°38' W 010°17'712.9
2018-Apr-26 00:00N 39°45' W 010°18'712.4
2018-Apr-25 23:28N 39°51' W 010°19'712.6
2018-Apr-25 22:55N 39°58' W 010°20'62313.0
2018-Apr-23 22:59N 50°19' W 011°37'1013.0
2018-Apr-23 22:12N 50°29' W 011°39'412.7
2018-Apr-23 21:53N 50°33' W 011°40'612.6
2018-Apr-23 21:27N 50°39' W 011°40'512.5
2018-Apr-23 21:00N 50°44' W 011°41'712.5
2018-Apr-23 20:28N 50°51' W 011°42'712.6
2018-Apr-23 19:54N 50°58' W 011°43'612.7
2018-Apr-23 19:27N 51°04' W 011°44'20812.5
2018-Apr-23 02:51N 54°31' W 011°39'  

Dump ship's entire track history